Necker Belle — MKYK7 — position and weather

sailwx.info

Track history (hours):
 
Tides and Currents Weather Stations Pressure Air Temp Water Temp Dewpoint Dewpoint Depression Visibility Wind Speed Wind Dir Waves Ship Positions

Necker Belle

Last reported at 2017-Jul-25 12:39 UTC. Time now 2017-Jul-25 22:31 UTC.
Position N 18°24' W 064°36'.

Length 32 m.

Type: Sailing vessel. MMSI: 232728000.

Date/timePositionNaut miles runAvg speedWind from/ knotsBaromVisibWave heightAir tempDewpointWater temp
2017-Jul-25 12:39N 18°24' W 064°36'  
2017-Jul-19 21:58N 18°24' W 064°38'5 3.2
2017-Jul-19 20:33N 18°25' W 064°33'2 0.4
2017-Jul-19 15:21N 18°25' W 064°31'3 8.2
2017-Jul-19 15:00N 18°23' W 064°34'2 0.1
2017-Jul-18 15:54N 18°23' W 064°35'2 0.1
2017-Jul-17 15:19N 18°21' W 064°37'2 6.0
2017-Jul-17 14:59N 18°22' W 064°35'3 5.9
2017-Jul-17 14:30N 18°23' W 064°32'0 0.0
2017-Jul-17 10:26N 18°23' W 064°32'0 0.0
2017-Jul-17 09:56N 18°23' W 064°32'0 0.0
2017-Jul-17 09:26N 18°23' W 064°32'0 0.0
2017-Jul-17 08:56N 18°23' W 064°32'0 0.0
2017-Jul-17 08:08N 18°23' W 064°32'0 0.0
2017-Jul-17 07:56N 18°23' W 064°32'0 0.0
2017-Jul-17 07:26N 18°23' W 064°32'0 0.0
2017-Jul-17 06:56N 18°23' W 064°32'0 0.0
2017-Jul-17 06:26N 18°23' W 064°32'0 0.0
2017-Jul-17 05:56N 18°23' W 064°32'0 0.0
2017-Jul-17 05:20N 18°23' W 064°32'0 0.0
2017-Jul-17 04:44N 18°23' W 064°32'0 0.0
2017-Jul-17 04:20N 18°23' W 064°32'0 0.0
2017-Jul-17 03:44N 18°23' W 064°32'0 0.0
2017-Jul-17 03:26N 18°23' W 064°32'0 0.0
2017-Jul-17 02:05N 18°23' W 064°32'0 0.1
2017-Jul-17 01:59N 18°23' W 064°32'0 0.0
2017-Jul-17 01:26N 18°23' W 064°32'0 0.0
2017-Jul-17 00:56N 18°23' W 064°32'0 0.0
2017-Jul-17 00:20N 18°23' W 064°32'0 0.0
2017-Jul-16 23:50N 18°23' W 064°32'0 0.0
2017-Jul-16 23:08N 18°23' W 064°32'0 0.0
2017-Jul-16 22:56N 18°23' W 064°32'0 0.0
2017-Jul-16 22:26N 18°23' W 064°32'0 0.0
2017-Jul-16 21:56N 18°23' W 064°32'0 0.0
2017-Jul-16 21:20N 18°23' W 064°32'0 0.0
2017-Jul-16 20:56N 18°23' W 064°32'0 0.0
2017-Jul-16 20:26N 18°23' W 064°32'0 0.0
2017-Jul-16 19:56N 18°23' W 064°32'0 0.0
2017-Jul-16 19:19N 18°23' W 064°32'0 1.2
2017-Jul-16 18:57N 18°23' W 064°31'2 5.2
2017-Jul-16 18:30N 18°24' W 064°30'3 6.2
2017-Jul-16 17:58N 18°26' W 064°27'0 0.0
2017-Jul-16 17:28N 18°26' W 064°27'0 0.0
2017-Jul-16 16:52N 18°26' W 064°27'0 0.0
2017-Jul-16 16:28N 18°26' W 064°27'0 0.0
2017-Jul-16 15:52N 18°26' W 064°27'2 1.6
2017-Jul-16 14:34N 18°28' W 064°26'  
Track history (hours):
 
Tides and Currents Weather Stations Pressure Air Temp Water Temp Dewpoint Dewpoint Depression Visibility Wind Speed Wind Dir Waves Ship Positions

Necker Belle

Last reported at 2017-Jul-25 12:39 UTC. Time now 2017-Jul-25 22:31 UTC.
Position N 18°24' W 064°36'.

Length 32 m.

Type: Sailing vessel. MMSI: 232728000.

Date/timePositionNaut miles runAvg speedWind from/ knotsBaromVisibWave heightAir tempDewpointWater temp
2017-Jul-25 12:39N 18°24' W 064°36'  
2017-Jul-19 21:58N 18°24' W 064°38'5 3.2
2017-Jul-19 20:33N 18°25' W 064°33'2 0.4
2017-Jul-19 15:21N 18°25' W 064°31'3 8.2
2017-Jul-19 15:00N 18°23' W 064°34'2 0.1
2017-Jul-18 15:54N 18°23' W 064°35'2 0.1
2017-Jul-17 15:19N 18°21' W 064°37'2 6.0
2017-Jul-17 14:59N 18°22' W 064°35'3 5.9
2017-Jul-17 14:30N 18°23' W 064°32'0 0.0
2017-Jul-17 10:26N 18°23' W 064°32'0 0.0
2017-Jul-17 09:56N 18°23' W 064°32'0 0.0
2017-Jul-17 09:26N 18°23' W 064°32'0 0.0
2017-Jul-17 08:56N 18°23' W 064°32'0 0.0
2017-Jul-17 08:08N 18°23' W 064°32'0 0.0
2017-Jul-17 07:56N 18°23' W 064°32'0 0.0
2017-Jul-17 07:26N 18°23' W 064°32'0 0.0
2017-Jul-17 06:56N 18°23' W 064°32'0 0.0
2017-Jul-17 06:26N 18°23' W 064°32'0 0.0
2017-Jul-17 05:56N 18°23' W 064°32'0 0.0
2017-Jul-17 05:20N 18°23' W 064°32'0 0.0
2017-Jul-17 04:44N 18°23' W 064°32'0 0.0
2017-Jul-17 04:20N 18°23' W 064°32'0 0.0
2017-Jul-17 03:44N 18°23' W 064°32'0 0.0
2017-Jul-17 03:26N 18°23' W 064°32'0 0.0
2017-Jul-17 02:05N 18°23' W 064°32'0 0.1
2017-Jul-17 01:59N 18°23' W 064°32'0 0.0
2017-Jul-17 01:26N 18°23' W 064°32'0 0.0
2017-Jul-17 00:56N 18°23' W 064°32'0 0.0
2017-Jul-17 00:20N 18°23' W 064°32'0 0.0
2017-Jul-16 23:50N 18°23' W 064°32'0 0.0
2017-Jul-16 23:08N 18°23' W 064°32'0 0.0
2017-Jul-16 22:56N 18°23' W 064°32'0 0.0
2017-Jul-16 22:26N 18°23' W 064°32'0 0.0
2017-Jul-16 21:56N 18°23' W 064°32'0 0.0
2017-Jul-16 21:20N 18°23' W 064°32'0 0.0
2017-Jul-16 20:56N 18°23' W 064°32'0 0.0
2017-Jul-16 20:26N 18°23' W 064°32'0 0.0
2017-Jul-16 19:56N 18°23' W 064°32'0 0.0
2017-Jul-16 19:19N 18°23' W 064°32'0 1.2
2017-Jul-16 18:57N 18°23' W 064°31'2 5.2
2017-Jul-16 18:30N 18°24' W 064°30'3 6.2
2017-Jul-16 17:58N 18°26' W 064°27'0 0.0
2017-Jul-16 17:28N 18°26' W 064°27'0 0.0
2017-Jul-16 16:52N 18°26' W 064°27'0 0.0
2017-Jul-16 16:28N 18°26' W 064°27'0 0.0
2017-Jul-16 15:52N 18°26' W 064°27'2 1.6
2017-Jul-16 14:34N 18°28' W 064°26'  

Dump ship's entire track history